sensor_id;sensor_type;location;lat;lon;timestamp;temperature;humidity
44851;DHT22;30583;48.714;9.386;2022-10-22T00:01:55;15.20;89.50
44851;DHT22;30583;48.714;9.386;2022-10-22T00:04:21;15.30;89.40
44851;DHT22;30583;48.714;9.386;2022-10-22T00:06:46;15.30;89.30
44851;DHT22;30583;48.714;9.386;2022-10-22T00:09:13;15.20;89.40
44851;DHT22;30583;48.714;9.386;2022-10-22T00:11:39;15.20;89.40
44851;DHT22;30583;48.714;9.386;2022-10-22T00:14:04;15.20;89.50
44851;DHT22;30583;48.714;9.386;2022-10-22T00:16:30;15.10;89.60
44851;DHT22;30583;48.714;9.386;2022-10-22T00:18:56;15.10;89.60
44851;DHT22;30583;48.714;9.386;2022-10-22T00:21:21;15.20;89.50
44851;DHT22;30583;48.714;9.386;2022-10-22T00:23:47;15.20;89.50
44851;DHT22;30583;48.714;9.386;2022-10-22T00:26:13;15.20;89.50
44851;DHT22;30583;48.714;9.386;2022-10-22T00:28:38;15.20;89.40
44851;DHT22;30583;48.714;9.386;2022-10-22T00:31:05;15.20;89.20
44851;DHT22;30583;48.714;9.386;2022-10-22T00:33:30;15.10;88.60
44851;DHT22;30583;48.714;9.386;2022-10-22T00:35:56;15.10;88.10
44851;DHT22;30583;48.714;9.386;2022-10-22T00:38:21;15.20;88.30
44851;DHT22;30583;48.714;9.386;2022-10-22T00:40:47;15.20;88.30
44851;DHT22;30583;48.714;9.386;2022-10-22T00:43:15;15.00;88.30
44851;DHT22;30583;48.714;9.386;2022-10-22T00:45:41;14.70;89.40
44851;DHT22;30583;48.714;9.386;2022-10-22T00:48:10;14.60;90.00
44851;DHT22;30583;48.714;9.386;2022-10-22T00:50:47;14.70;89.40
44851;DHT22;30583;48.714;9.386;2022-10-22T00:53:21;14.60;89.80
44851;DHT22;30583;48.714;9.386;2022-10-22T00:55:51;14.90;89.30
44851;DHT22;30583;48.714;9.386;2022-10-22T00:58:18;14.70;89.20
44851;DHT22;30583;48.714;9.386;2022-10-22T01:00:46;14.90;88.60
44851;DHT22;30583;48.714;9.386;2022-10-22T01:03:12;14.90;88.20
44851;DHT22;30583;48.714;9.386;2022-10-22T01:06:04;14.90;88.10
44851;DHT22;30583;48.714;9.386;2022-10-22T01:11:58;15.00;88.40
44851;DHT22;30583;48.714;9.386;2022-10-22T01:17:58;14.90;88.00
44851;DHT22;30583;48.714;9.386;2022-10-22T01:25:47;15.00;87.50
44851;DHT22;30583;48.714;9.386;2022-10-22T01:31:22;14.90;87.70
44851;DHT22;30583;48.714;9.386;2022-10-22T01:33:52;14.90;87.60
44851;DHT22;30583;48.714;9.386;2022-10-22T01:36:19;14.90;88.10
44851;DHT22;30583;48.714;9.386;2022-10-22T01:38:46;15.10;87.50
44851;DHT22;30583;48.714;9.386;2022-10-22T01:41:13;14.80;87.70
44851;DHT22;30583;48.714;9.386;2022-10-22T01:43:38;14.70;87.80
44851;DHT22;30583;48.714;9.386;2022-10-22T01:46:05;14.60;88.40
44851;DHT22;30583;48.714;9.386;2022-10-22T01:48:44;14.70;88.20
44851;DHT22;30583;48.714;9.386;2022-10-22T01:57:16;14.40;87.40
44851;DHT22;30583;48.714;9.386;2022-10-22T02:00:00;14.50;87.80
44851;DHT22;30583;48.714;9.386;2022-10-22T02:02:39;14.60;87.30
44851;DHT22;30583;48.714;9.386;2022-10-22T02:05:12;14.60;86.90
44851;DHT22;30583;48.714;9.386;2022-10-22T02:07:46;14.70;86.50
44851;DHT22;30583;48.714;9.386;2022-10-22T02:10:14;14.90;86.60
44851;DHT22;30583;48.714;9.386;2022-10-22T02:12:42;14.90;86.20
44851;DHT22;30583;48.714;9.386;2022-10-22T02:15:10;14.90;86.30
44851;DHT22;30583;48.714;9.386;2022-10-22T02:17:37;14.90;86.30
44851;DHT22;30583;48.714;9.386;2022-10-22T02:20:11;14.90;86.30
44851;DHT22;30583;48.714;9.386;2022-10-22T02:22:37;14.90;86.50
44851;DHT22;30583;48.714;9.386;2022-10-22T02:25:05;15.00;86.40
44851;DHT22;30583;48.714;9.386;2022-10-22T02:27:32;14.90;86.30
44851;DHT22;30583;48.714;9.386;2022-10-22T02:30:05;14.80;86.50
44851;DHT22;30583;48.714;9.386;2022-10-22T02:35:04;14.70;86.40
44851;DHT22;30583;48.714;9.386;2022-10-22T02:37:31;14.60;86.30
44851;DHT22;30583;48.714;9.386;2022-10-22T02:39:57;14.50;86.80
44851;DHT22;30583;48.714;9.386;2022-10-22T02:42:24;14.70;86.90
44851;DHT22;30583;48.714;9.386;2022-10-22T02:44:50;14.70;86.80
44851;DHT22;30583;48.714;9.386;2022-10-22T02:47:16;14.70;86.70
44851;DHT22;30583;48.714;9.386;2022-10-22T02:49:41;14.70;86.50
44851;DHT22;30583;48.714;9.386;2022-10-22T02:52:07;14.70;86.60
44851;DHT22;30583;48.714;9.386;2022-10-22T02:54:32;14.70;86.50
44851;DHT22;30583;48.714;9.386;2022-10-22T02:56:58;14.80;85.80
44851;DHT22;30583;48.714;9.386;2022-10-22T02:59:24;14.70;86.00
44851;DHT22;30583;48.714;9.386;2022-10-22T03:01:49;14.70;86.40
44851;DHT22;30583;48.714;9.386;2022-10-22T03:04:15;14.70;86.40
44851;DHT22;30583;48.714;9.386;2022-10-22T03:06:41;14.70;86.30
44851;DHT22;30583;48.714;9.386;2022-10-22T03:09:08;14.50;86.60
44851;DHT22;30583;48.714;9.386;2022-10-22T03:11:34;14.50;87.10
44851;DHT22;30583;48.714;9.386;2022-10-22T03:14:00;14.40;86.90
44851;DHT22;30583;48.714;9.386;2022-10-22T03:16:25;14.70;86.90
44851;DHT22;30583;48.714;9.386;2022-10-22T03:18:51;14.70;86.30
44851;DHT22;30583;48.714;9.386;2022-10-22T03:21:44;14.70;86.30
44851;DHT22;30583;48.714;9.386;2022-10-22T03:24:17;14.70;86.10
44851;DHT22;30583;48.714;9.386;2022-10-22T03:26:45;14.50;86.20
44851;DHT22;30583;48.714;9.386;2022-10-22T03:29:12;14.20;86.70
44851;DHT22;30583;48.714;9.386;2022-10-22T03:31:38;14.40;87.00
44851;DHT22;30583;48.714;9.386;2022-10-22T03:34:04;14.30;86.60
44851;DHT22;30583;48.714;9.386;2022-10-22T03:36:31;14.40;86.70
44851;DHT22;30583;48.714;9.386;2022-10-22T03:38:58;14.50;86.70
44851;DHT22;30583;48.714;9.386;2022-10-22T03:41:24;14.60;85.90
44851;DHT22;30583;48.714;9.386;2022-10-22T03:43:49;14.30;85.90
44851;DHT22;30583;48.714;9.386;2022-10-22T03:46:18;14.30;86.30
44851;DHT22;30583;48.714;9.386;2022-10-22T03:48:43;14.40;86.50
44851;DHT22;30583;48.714;9.386;2022-10-22T03:51:09;14.30;86.70
44851;DHT22;30583;48.714;9.386;2022-10-22T03:53:35;14.50;86.20
44851;DHT22;30583;48.714;9.386;2022-10-22T03:56:00;14.30;86.40
44851;DHT22;30583;48.714;9.386;2022-10-22T03:58:26;14.50;86.40
44851;DHT22;30583;48.714;9.386;2022-10-22T04:00:51;14.60;85.80
44851;DHT22;30583;48.714;9.386;2022-10-22T04:03:17;14.40;86.10
44851;DHT22;30583;48.714;9.386;2022-10-22T04:05:42;14.60;85.60
44851;DHT22;30583;48.714;9.386;2022-10-22T04:08:08;14.60;85.50
44851;DHT22;30583;48.714;9.386;2022-10-22T04:10:33;14.70;85.30
44851;DHT22;30583;48.714;9.386;2022-10-22T04:12:59;14.60;85.50
44851;DHT22;30583;48.714;9.386;2022-10-22T04:15:25;14.40;86.10
44851;DHT22;30583;48.714;9.386;2022-10-22T04:17:52;14.50;86.10
44851;DHT22;30583;48.714;9.386;2022-10-22T04:20:18;14.50;85.90
44851;DHT22;30583;48.714;9.386;2022-10-22T04:22:44;14.40;85.70
44851;DHT22;30583;48.714;9.386;2022-10-22T04:25:09;14.50;86.00
44851;DHT22;30583;48.714;9.386;2022-10-22T04:27:35;14.50;86.00
44851;DHT22;30583;48.714;9.386;2022-10-22T04:30:01;14.20;86.00
44851;DHT22;30583;48.714;9.386;2022-10-22T04:32:27;14.20;86.60
44851;DHT22;30583;48.714;9.386;2022-10-22T04:34:53;14.50;85.90
44851;DHT22;30583;48.714;9.386;2022-10-22T04:37:19;14.50;85.50
44851;DHT22;30583;48.714;9.386;2022-10-22T04:39:44;14.40;86.10
44851;DHT22;30583;48.714;9.386;2022-10-22T04:42:10;14.50;85.60
44851;DHT22;30583;48.714;9.386;2022-10-22T04:44:37;14.30;86.10
44851;DHT22;30583;48.714;9.386;2022-10-22T04:47:02;14.30;86.30
44851;DHT22;30583;48.714;9.386;2022-10-22T04:49:28;14.10;86.60
44851;DHT22;30583;48.714;9.386;2022-10-22T04:51:53;14.20;86.60
44851;DHT22;30583;48.714;9.386;2022-10-22T04:54:19;14.10;86.10
44851;DHT22;30583;48.714;9.386;2022-10-22T04:56:44;14.00;86.60
44851;DHT22;30583;48.714;9.386;2022-10-22T04:59:11;14.00;86.50
44851;DHT22;30583;48.714;9.386;2022-10-22T05:01:41;13.80;86.70
44851;DHT22;30583;48.714;9.386;2022-10-22T05:04:10;13.90;87.10
44851;DHT22;30583;48.714;9.386;2022-10-22T05:06:36;13.90;86.70
44851;DHT22;30583;48.714;9.386;2022-10-22T05:09:09;14.20;86.40
44851;DHT22;30583;48.714;9.386;2022-10-22T05:11:37;14.20;85.80
44851;DHT22;30583;48.714;9.386;2022-10-22T05:14:04;14.20;85.90
44851;DHT22;30583;48.714;9.386;2022-10-22T05:16:32;14.10;86.50
44851;DHT22;30583;48.714;9.386;2022-10-22T05:18:59;14.20;86.10
44851;DHT22;30583;48.714;9.386;2022-10-22T05:21:25;14.20;85.90
44851;DHT22;30583;48.714;9.386;2022-10-22T05:23:54;14.20;85.80
44851;DHT22;30583;48.714;9.386;2022-10-22T05:26:21;14.30;85.60
44851;DHT22;30583;48.714;9.386;2022-10-22T05:28:49;14.40;85.40
44851;DHT22;30583;48.714;9.386;2022-10-22T05:31:15;14.40;85.80
44851;DHT22;30583;48.714;9.386;2022-10-22T05:33:42;14.50;85.60
44851;DHT22;30583;48.714;9.386;2022-10-22T05:36:11;14.60;85.00
44851;DHT22;30583;48.714;9.386;2022-10-22T05:38:37;14.30;84.90
44851;DHT22;30583;48.714;9.386;2022-10-22T05:41:08;14.30;85.50
44851;DHT22;30583;48.714;9.386;2022-10-22T05:43:34;14.40;84.90
44851;DHT22;30583;48.714;9.386;2022-10-22T05:46:23;14.40;84.80
44851;DHT22;30583;48.714;9.386;2022-10-22T05:48:55;14.30;84.60
44851;DHT22;30583;48.714;9.386;2022-10-22T05:51:22;14.20;85.20
44851;DHT22;30583;48.714;9.386;2022-10-22T05:53:52;13.90;86.10
44851;DHT22;30583;48.714;9.386;2022-10-22T05:56:17;14.00;86.20
44851;DHT22;30583;48.714;9.386;2022-10-22T05:58:44;14.00;86.10
44851;DHT22;30583;48.714;9.386;2022-10-22T06:01:27;14.00;86.60
44851;DHT22;30583;48.714;9.386;2022-10-22T06:03:55;13.90;86.40
44851;DHT22;30583;48.714;9.386;2022-10-22T06:06:29;13.90;86.60
44851;DHT22;30583;48.714;9.386;2022-10-22T06:11:30;14.20;86.00
44851;DHT22;30583;48.714;9.386;2022-10-22T06:13:56;14.30;85.90
44851;DHT22;30583;48.714;9.386;2022-10-22T06:16:21;14.10;86.40
44851;DHT22;30583;48.714;9.386;2022-10-22T06:18:47;14.20;86.40
44851;DHT22;30583;48.714;9.386;2022-10-22T06:21:14;14.10;86.40
44851;DHT22;30583;48.714;9.386;2022-10-22T06:23:41;14.00;86.10
44851;DHT22;30583;48.714;9.386;2022-10-22T06:26:08;14.00;86.10
44851;DHT22;30583;48.714;9.386;2022-10-22T06:28:34;13.80;86.80
44851;DHT22;30583;48.714;9.386;2022-10-22T06:31:01;13.90;87.00
44851;DHT22;30583;48.714;9.386;2022-10-22T06:33:28;14.00;87.00
44851;DHT22;30583;48.714;9.386;2022-10-22T06:35:54;14.00;87.00
44851;DHT22;30583;48.714;9.386;2022-10-22T06:38:20;14.10;87.00
44851;DHT22;30583;48.714;9.386;2022-10-22T06:40:45;14.00;87.10
44851;DHT22;30583;48.714;9.386;2022-10-22T06:43:12;14.00;87.30
44851;DHT22;30583;48.714;9.386;2022-10-22T06:45:38;14.00;87.50
44851;DHT22;30583;48.714;9.386;2022-10-22T06:48:04;14.00;87.50
44851;DHT22;30583;48.714;9.386;2022-10-22T06:50:30;14.70;87.10
44851;DHT22;30583;48.714;9.386;2022-10-22T06:52:56;14.80;85.90
44851;DHT22;30583;48.714;9.386;2022-10-22T06:55:22;15.10;85.10
44851;DHT22;30583;48.714;9.386;2022-10-22T06:57:47;15.80;84.00
44851;DHT22;30583;48.714;9.386;2022-10-22T07:00:13;15.30;83.00
44851;DHT22;30583;48.714;9.386;2022-10-22T07:02:39;15.60;84.30
44851;DHT22;30583;48.714;9.386;2022-10-22T07:05:04;15.30;83.50
44851;DHT22;30583;48.714;9.386;2022-10-22T07:07:30;15.20;84.10
44851;DHT22;30583;48.714;9.386;2022-10-22T07:09:56;14.80;84.90
44851;DHT22;30583;48.714;9.386;2022-10-22T07:12:21;14.70;85.50
44851;DHT22;30583;48.714;9.386;2022-10-22T07:14:48;14.60;85.80
44851;DHT22;30583;48.714;9.386;2022-10-22T07:17:13;14.40;86.70
44851;DHT22;30583;48.714;9.386;2022-10-22T07:19:39;14.50;86.70
44851;DHT22;30583;48.714;9.386;2022-10-22T07:22:04;14.60;86.60
44851;DHT22;30583;48.714;9.386;2022-10-22T07:24:30;14.70;86.40
44851;DHT22;30583;48.714;9.386;2022-10-22T07:26:56;14.70;86.30
44851;DHT22;30583;48.714;9.386;2022-10-22T07:29:22;14.70;86.40
44851;DHT22;30583;48.714;9.386;2022-10-22T07:31:47;14.70;86.50
44851;DHT22;30583;48.714;9.386;2022-10-22T07:34:13;14.70;86.40
44851;DHT22;30583;48.714;9.386;2022-10-22T07:36:38;14.70;86.70
44851;DHT22;30583;48.714;9.386;2022-10-22T07:39:04;14.50;86.70
44851;DHT22;30583;48.714;9.386;2022-10-22T07:41:30;14.70;87.30
44851;DHT22;30583;48.714;9.386;2022-10-22T07:43:56;15.00;86.50
44851;DHT22;30583;48.714;9.386;2022-10-22T07:46:22;15.20;85.50
44851;DHT22;30583;48.714;9.386;2022-10-22T07:48:48;15.30;85.10
44851;DHT22;30583;48.714;9.386;2022-10-22T07:51:15;15.60;84.10
44851;DHT22;30583;48.714;9.386;2022-10-22T07:53:40;15.70;83.70
44851;DHT22;30583;48.714;9.386;2022-10-22T07:56:06;15.60;83.40
44851;DHT22;30583;48.714;9.386;2022-10-22T07:58:32;15.50;84.00
44851;DHT22;30583;48.714;9.386;2022-10-22T08:00:59;15.50;84.10
44851;DHT22;30583;48.714;9.386;2022-10-22T08:03:26;15.40;83.80
44851;DHT22;30583;48.714;9.386;2022-10-22T08:05:52;15.00;84.40
44851;DHT22;30583;48.714;9.386;2022-10-22T08:08:19;15.20;85.00
44851;DHT22;30583;48.714;9.386;2022-10-22T08:10:46;15.30;84.40
44851;DHT22;30583;48.714;9.386;2022-10-22T08:13:12;15.30;84.00
44851;DHT22;30583;48.714;9.386;2022-10-22T08:15:38;15.40;84.50
44851;DHT22;30583;48.714;9.386;2022-10-22T08:18:04;15.80;83.50
44851;DHT22;30583;48.714;9.386;2022-10-22T08:20:30;15.60;83.30
44851;DHT22;30583;48.714;9.386;2022-10-22T08:22:55;15.80;82.90
44851;DHT22;30583;48.714;9.386;2022-10-22T08:25:21;15.80;82.30
44851;DHT22;30583;48.714;9.386;2022-10-22T08:27:46;15.40;82.70
44851;DHT22;30583;48.714;9.386;2022-10-22T08:30:13;15.30;83.20
44851;DHT22;30583;48.714;9.386;2022-10-22T08:32:39;15.20;83.40
44851;DHT22;30583;48.714;9.386;2022-10-22T08:35:06;15.20;83.90
44851;DHT22;30583;48.714;9.386;2022-10-22T08:37:31;15.60;83.20
44851;DHT22;30583;48.714;9.386;2022-10-22T08:39:57;15.70;82.40
44851;DHT22;30583;48.714;9.386;2022-10-22T08:45:19;16.00;81.80
44851;DHT22;30583;48.714;9.386;2022-10-22T08:48:08;16.00;81.40
44851;DHT22;30583;48.714;9.386;2022-10-22T08:50:47;15.80;81.60
44851;DHT22;30583;48.714;9.386;2022-10-22T08:56:08;16.10;80.20
44851;DHT22;30583;48.714;9.386;2022-10-22T08:58:39;16.20;80.40
44851;DHT22;30583;48.714;9.386;2022-10-22T09:06:31;16.40;79.60
44851;DHT22;30583;48.714;9.386;2022-10-22T09:08:59;16.70;79.20
44851;DHT22;30583;48.714;9.386;2022-10-22T09:11:34;17.00;78.20
44851;DHT22;30583;48.714;9.386;2022-10-22T09:14:01;17.30;76.80
44851;DHT22;30583;48.714;9.386;2022-10-22T09:16:49;17.50;75.90
44851;DHT22;30583;48.714;9.386;2022-10-22T09:19:50;17.70;75.80
44851;DHT22;30583;48.714;9.386;2022-10-22T09:22:37;18.00;75.30
44851;DHT22;30583;48.714;9.386;2022-10-22T09:25:28;18.40;74.30
44851;DHT22;30583;48.714;9.386;2022-10-22T09:27:55;18.70;73.10
44851;DHT22;30583;48.714;9.386;2022-10-22T09:30:26;18.70;73.50
44851;DHT22;30583;48.714;9.386;2022-10-22T09:32:59;18.90;72.70
44851;DHT22;30583;48.714;9.386;2022-10-22T09:35:26;19.00;72.80
44851;DHT22;30583;48.714;9.386;2022-10-22T09:37:54;19.00;71.60
44851;DHT22;30583;48.714;9.386;2022-10-22T09:40:21;19.20;70.90
44851;DHT22;30583;48.714;9.386;2022-10-22T09:42:47;19.60;70.70
44851;DHT22;30583;48.714;9.386;2022-10-22T09:45:24;19.60;70.00
44851;DHT22;30583;48.714;9.386;2022-10-22T09:48:08;19.70;70.20
44851;DHT22;30583;48.714;9.386;2022-10-22T09:50:46;19.80;69.90
44851;DHT22;30583;48.714;9.386;2022-10-22T09:53:21;20.00;69.70
44851;DHT22;30583;48.714;9.386;2022-10-22T09:56:13;20.30;69.30
44851;DHT22;30583;48.714;9.386;2022-10-22T09:58:45;20.20;69.50
44851;DHT22;30583;48.714;9.386;2022-10-22T10:01:41;20.10;68.90
44851;DHT22;30583;48.714;9.386;2022-10-22T10:04:11;20.60;68.70
44851;DHT22;30583;48.714;9.386;2022-10-22T10:06:40;21.00;68.10
44851;DHT22;30583;48.714;9.386;2022-10-22T10:09:16;20.90;66.00
44851;DHT22;30583;48.714;9.386;2022-10-22T10:11:51;21.10;66.40
44851;DHT22;30583;48.714;9.386;2022-10-22T10:17:15;21.10;66.60
44851;DHT22;30583;48.714;9.386;2022-10-22T10:19:50;20.90;66.70
44851;DHT22;30583;48.714;9.386;2022-10-22T10:22:26;20.50;64.90
44851;DHT22;30583;48.714;9.386;2022-10-22T10:27:56;20.00;66.70
44851;DHT22;30583;48.714;9.386;2022-10-22T10:30:24;20.00;65.50
44851;DHT22;30583;48.714;9.386;2022-10-22T10:33:31;20.10;66.30
44851;DHT22;30583;48.714;9.386;2022-10-22T10:41:30;21.70;63.30
44851;DHT22;30583;48.714;9.386;2022-10-22T10:49:42;22.30;61.00
44851;DHT22;30583;48.714;9.386;2022-10-22T10:55:16;22.10;60.10
44851;DHT22;30583;48.714;9.386;2022-10-22T10:58:04;21.80;60.10
44851;DHT22;30583;48.714;9.386;2022-10-22T11:00:42;21.80;61.30
44851;DHT22;30583;48.714;9.386;2022-10-22T11:05:57;22.30;59.20
44851;DHT22;30583;48.714;9.386;2022-10-22T11:08:30;22.60;58.00
44851;DHT22;30583;48.714;9.386;2022-10-22T11:11:01;21.80;60.10
44851;DHT22;30583;48.714;9.386;2022-10-22T11:13:32;21.70;59.00
44851;DHT22;30583;48.714;9.386;2022-10-22T11:16:22;22.60;59.00
44851;DHT22;30583;48.714;9.386;2022-10-22T11:21:28;23.20;57.80
44851;DHT22;30583;48.714;9.386;2022-10-22T11:26:50;23.30;55.50
44851;DHT22;30583;48.714;9.386;2022-10-22T11:29:24;23.60;53.90
44851;DHT22;30583;48.714;9.386;2022-10-22T11:31:53;23.60;54.70
44851;DHT22;30583;48.714;9.386;2022-10-22T11:37:02;23.80;53.70
44851;DHT22;30583;48.714;9.386;2022-10-22T11:42:03;24.00;52.40
44851;DHT22;30583;48.714;9.386;2022-10-22T11:44:30;24.00;53.80
44851;DHT22;30583;48.714;9.386;2022-10-22T11:50:24;24.30;52.10
44851;DHT22;30583;48.714;9.386;2022-10-22T12:08:30;25.00;48.90
44851;DHT22;30583;48.714;9.386;2022-10-22T12:10:57;23.70;50.30
44851;DHT22;30583;48.714;9.386;2022-10-22T12:13:30;24.20;51.50
44851;DHT22;30583;48.714;9.386;2022-10-22T12:16:00;24.40;51.90
44851;DHT22;30583;48.714;9.386;2022-10-22T12:18:40;24.50;50.60
44851;DHT22;30583;48.714;9.386;2022-10-22T12:21:14;24.50;51.60
44851;DHT22;30583;48.714;9.386;2022-10-22T12:23:40;24.40;50.20
44851;DHT22;30583;48.714;9.386;2022-10-22T12:26:24;24.60;48.50
44851;DHT22;30583;48.714;9.386;2022-10-22T12:28:50;25.00;50.00
44851;DHT22;30583;48.714;9.386;2022-10-22T12:31:20;23.90;49.50
44851;DHT22;30583;48.714;9.386;2022-10-22T12:33:46;24.50;49.90
44851;DHT22;30583;48.714;9.386;2022-10-22T12:36:16;24.90;48.30
44851;DHT22;30583;48.714;9.386;2022-10-22T12:38:45;24.70;46.90
44851;DHT22;30583;48.714;9.386;2022-10-22T12:41:11;25.10;46.90
44851;DHT22;30583;48.714;9.386;2022-10-22T12:43:37;25.10;46.60
44851;DHT22;30583;48.714;9.386;2022-10-22T12:46:14;24.80;43.90
44851;DHT22;30583;48.714;9.386;2022-10-22T12:48:43;24.30;44.90
44851;DHT22;30583;48.714;9.386;2022-10-22T12:51:15;24.30;46.20
44851;DHT22;30583;48.714;9.386;2022-10-22T12:53:45;23.70;47.50
44851;DHT22;30583;48.714;9.386;2022-10-22T12:56:41;23.10;48.60
44851;DHT22;30583;48.714;9.386;2022-10-22T12:59:11;23.60;48.90
44851;DHT22;30583;48.714;9.386;2022-10-22T13:01:41;24.10;47.30
44851;DHT22;30583;48.714;9.386;2022-10-22T13:04:20;24.00;47.50
44851;DHT22;30583;48.714;9.386;2022-10-22T13:06:51;23.60;49.40
44851;DHT22;30583;48.714;9.386;2022-10-22T13:09:23;23.80;48.40
44851;DHT22;30583;48.714;9.386;2022-10-22T13:11:53;23.60;49.20
44851;DHT22;30583;48.714;9.386;2022-10-22T13:14:30;23.50;48.80
44851;DHT22;30583;48.714;9.386;2022-10-22T13:22:24;25.00;45.50
44851;DHT22;30583;48.714;9.386;2022-10-22T13:24:50;25.50;45.00
44851;DHT22;30583;48.714;9.386;2022-10-22T13:27:16;25.50;43.80
44851;DHT22;30583;48.714;9.386;2022-10-22T13:29:42;24.30;44.60
44851;DHT22;30583;48.714;9.386;2022-10-22T13:32:28;24.90;45.00
44851;DHT22;30583;48.714;9.386;2022-10-22T13:35:03;25.00;43.90
44851;DHT22;30583;48.714;9.386;2022-10-22T13:37:31;25.10;44.30
44851;DHT22;30583;48.714;9.386;2022-10-22T13:39:57;25.20;43.30
44851;DHT22;30583;48.714;9.386;2022-10-22T13:42:22;25.00;44.60
44851;DHT22;30583;48.714;9.386;2022-10-22T13:44:48;25.30;42.30
44851;DHT22;30583;48.714;9.386;2022-10-22T13:47:25;25.30;43.20
44851;DHT22;30583;48.714;9.386;2022-10-22T13:49:54;25.40;42.40
44851;DHT22;30583;48.714;9.386;2022-10-22T13:52:42;25.30;43.30
44851;DHT22;30583;48.714;9.386;2022-10-22T13:55:20;25.70;43.70
44851;DHT22;30583;48.714;9.386;2022-10-22T13:57:46;25.70;43.60
44851;DHT22;30583;48.714;9.386;2022-10-22T14:00:18;25.70;43.20
44851;DHT22;30583;48.714;9.386;2022-10-22T14:02:46;25.80;42.60
44851;DHT22;30583;48.714;9.386;2022-10-22T14:05:12;25.60;40.80
44851;DHT22;30583;48.714;9.386;2022-10-22T14:07:38;25.20;42.60
44851;DHT22;30583;48.714;9.386;2022-10-22T14:10:33;25.70;41.00
44851;DHT22;30583;48.714;9.386;2022-10-22T14:12:59;25.70;41.20
44851;DHT22;30583;48.714;9.386;2022-10-22T14:15:26;25.90;40.40
44851;DHT22;30583;48.714;9.386;2022-10-22T14:17:55;24.90;42.10
44851;DHT22;30583;48.714;9.386;2022-10-22T14:20:27;25.20;41.90
44851;DHT22;30583;48.714;9.386;2022-10-22T14:22:53;25.30;41.70
44851;DHT22;30583;48.714;9.386;2022-10-22T14:25:24;24.70;42.60
44851;DHT22;30583;48.714;9.386;2022-10-22T14:27:50;24.80;43.30
44851;DHT22;30583;48.714;9.386;2022-10-22T14:30:18;25.30;43.50
44851;DHT22;30583;48.714;9.386;2022-10-22T14:32:45;25.10;43.00
44851;DHT22;30583;48.714;9.386;2022-10-22T14:35:16;25.10;41.90
44851;DHT22;30583;48.714;9.386;2022-10-22T14:37:42;24.70;43.30
44851;DHT22;30583;48.714;9.386;2022-10-22T14:40:10;25.20;42.90
44851;DHT22;30583;48.714;9.386;2022-10-22T14:42:39;25.40;41.80
44851;DHT22;30583;48.714;9.386;2022-10-22T14:47:39;25.30;42.00
44851;DHT22;30583;48.714;9.386;2022-10-22T14:50:04;25.50;41.10
44851;DHT22;30583;48.714;9.386;2022-10-22T14:52:32;24.80;42.00
44851;DHT22;30583;48.714;9.386;2022-10-22T14:54:58;25.20;41.20
44851;DHT22;30583;48.714;9.386;2022-10-22T14:57:23;25.50;41.90
44851;DHT22;30583;48.714;9.386;2022-10-22T14:59:49;25.70;41.40
44851;DHT22;30583;48.714;9.386;2022-10-22T15:02:14;24.70;41.50
44851;DHT22;30583;48.714;9.386;2022-10-22T15:04:40;24.70;43.30
44851;DHT22;30583;48.714;9.386;2022-10-22T15:07:06;25.30;42.00
44851;DHT22;30583;48.714;9.386;2022-10-22T15:09:31;24.90;42.40
44851;DHT22;30583;48.714;9.386;2022-10-22T15:11:57;24.80;43.00
44851;DHT22;30583;48.714;9.386;2022-10-22T15:14:23;24.70;43.50
44851;DHT22;30583;48.714;9.386;2022-10-22T15:16:49;25.00;43.30
44851;DHT22;30583;48.714;9.386;2022-10-22T15:19:14;24.30;44.10
44851;DHT22;30583;48.714;9.386;2022-10-22T15:21:40;24.30;43.90
44851;DHT22;30583;48.714;9.386;2022-10-22T15:24:06;24.20;45.00
44851;DHT22;30583;48.714;9.386;2022-10-22T15:26:31;24.20;45.70
44851;DHT22;30583;48.714;9.386;2022-10-22T15:28:57;24.70;45.10
44851;DHT22;30583;48.714;9.386;2022-10-22T15:32:01;24.70;45.50
44851;DHT22;30583;48.714;9.386;2022-10-22T15:34:34;24.60;45.80
44851;DHT22;30583;48.714;9.386;2022-10-22T15:37:02;23.90;47.20
44851;DHT22;30583;48.714;9.386;2022-10-22T15:39:28;24.10;46.40
44851;DHT22;30583;48.714;9.386;2022-10-22T15:41:54;23.80;47.50
44851;DHT22;30583;48.714;9.386;2022-10-22T15:44:23;23.30;48.70
44851;DHT22;30583;48.714;9.386;2022-10-22T15:46:49;23.20;48.90
44851;DHT22;30583;48.714;9.386;2022-10-22T15:49:16;22.70;49.80
44851;DHT22;30583;48.714;9.386;2022-10-22T15:51:42;22.50;51.60
44851;DHT22;30583;48.714;9.386;2022-10-22T15:54:13;22.40;52.40
44851;DHT22;30583;48.714;9.386;2022-10-22T15:56:38;22.20;53.20
44851;DHT22;30583;48.714;9.386;2022-10-22T15:59:04;21.80;54.20
44851;DHT22;30583;48.714;9.386;2022-10-22T16:01:32;21.60;55.10
44851;DHT22;30583;48.714;9.386;2022-10-22T16:03:59;21.40;56.00
44851;DHT22;30583;48.714;9.386;2022-10-22T16:06:36;21.20;57.10
44851;DHT22;30583;48.714;9.386;2022-10-22T16:09:06;21.10;57.60
44851;DHT22;30583;48.714;9.386;2022-10-22T16:11:32;21.00;58.10
44851;DHT22;30583;48.714;9.386;2022-10-22T16:13:59;20.90;58.30
44851;DHT22;30583;48.714;9.386;2022-10-22T16:16:28;20.70;58.70
44851;DHT22;30583;48.714;9.386;2022-10-22T16:18:54;20.40;58.90
44851;DHT22;30583;48.714;9.386;2022-10-22T16:21:21;20.20;59.40
44851;DHT22;30583;48.714;9.386;2022-10-22T16:23:47;20.20;59.80
44851;DHT22;30583;48.714;9.386;2022-10-22T16:26:13;20.20;60.10
44851;DHT22;30583;48.714;9.386;2022-10-22T16:28:40;20.10;60.40
44851;DHT22;30583;48.714;9.386;2022-10-22T16:31:09;20.10;60.60
44851;DHT22;30583;48.714;9.386;2022-10-22T16:33:36;20.20;60.80
44851;DHT22;30583;48.714;9.386;2022-10-22T16:36:04;20.30;60.10
44851;DHT22;30583;48.714;9.386;2022-10-22T16:38:30;20.20;61.00
44851;DHT22;30583;48.714;9.386;2022-10-22T16:41:16;20.00;61.30
44851;DHT22;30583;48.714;9.386;2022-10-22T16:43:44;20.00;62.60
44851;DHT22;30583;48.714;9.386;2022-10-22T16:46:11;19.70;63.90
44851;DHT22;30583;48.714;9.386;2022-10-22T16:48:37;19.70;63.00
44851;DHT22;30583;48.714;9.386;2022-10-22T16:51:11;19.70;62.90
44851;DHT22;30583;48.714;9.386;2022-10-22T16:53:36;19.80;64.20
44851;DHT22;30583;48.714;9.386;2022-10-22T16:56:02;19.60;63.70
44851;DHT22;30583;48.714;9.386;2022-10-22T16:58:28;19.20;63.90
44851;DHT22;30583;48.714;9.386;2022-10-22T17:00:54;19.00;64.30
44851;DHT22;30583;48.714;9.386;2022-10-22T17:03:19;18.90;66.40
44851;DHT22;30583;48.714;9.386;2022-10-22T17:05:45;18.80;67.00
44851;DHT22;30583;48.714;9.386;2022-10-22T17:08:10;18.70;67.00
44851;DHT22;30583;48.714;9.386;2022-10-22T17:10:36;18.80;65.20
44851;DHT22;30583;48.714;9.386;2022-10-22T17:13:04;18.60;65.10
44851;DHT22;30583;48.714;9.386;2022-10-22T17:15:30;18.50;65.20
44851;DHT22;30583;48.714;9.386;2022-10-22T17:17:58;18.50;65.20
44851;DHT22;30583;48.714;9.386;2022-10-22T17:20:24;18.30;65.70